Time,TemperatureF,DewpointF,PressureIn,WindDirection,WindDirectionDegrees,WindSpeedMPH,WindSpeedGustMPH,Humidity,HourlyPrecipIn,Conditions,Clouds,dailyrainin,SoftwareType,DateUTC
2013-03-16 00:00:00,53.3,44.5,30.05,West,270,1.6,4.7,72,0.00,,,0.00,WUHU216HW,2013-03-16 07:00:00,
2013-03-16 00:05:00,53.1,44.3,30.05,WSW,248,3.1,4.3,72,0.00,,,0.00,WUHU216HW,2013-03-16 07:05:00,
2013-03-16 00:10:00,52.9,44.2,30.05,WSW,248,2.2,4.5,72,0.00,,,0.00,WUHU216HW,2013-03-16 07:10:00,
2013-03-16 00:15:00,52.7,44.4,30.06,WSW,248,2.9,4.5,73,0.00,,,0.00,WUHU216HW,2013-03-16 07:15:00,
2013-03-16 00:20:00,52.6,44.2,30.06,West,270,1.8,2.9,73,0.00,,,0.00,WUHU216HW,2013-03-16 07:20:00,
2013-03-16 00:25:00,52.4,44.0,30.06,WSW,248,3.1,3.1,73,0.00,,,0.00,WUHU216HW,2013-03-16 07:25:00,
2013-03-16 00:30:00,52.2,44.2,30.06,WSW,248,3.6,3.6,74,0.00,,,0.00,WUHU216HW,2013-03-16 07:30:00,
2013-03-16 00:35:00,52.2,44.6,30.06,SW,225,1.3,3.6,75,0.00,,,0.00,WUHU216HW,2013-03-16 07:35:00,
2013-03-16 00:40:00,51.8,43.8,30.06,South,180,4.0,4.0,74,0.00,,,0.00,WUHU216HW,2013-03-16 07:40:00,
2013-03-16 00:45:00,51.7,44.0,30.06,SW,225,5.4,5.4,75,0.00,,,0.00,WUHU216HW,2013-03-16 07:45:00,
2013-03-16 00:50:00,51.5,43.8,30.06,SSW,203,2.2,5.4,75,0.00,,,0.00,WUHU216HW,2013-03-16 07:50:00,
2013-03-16 00:55:00,51.1,43.8,30.06,SSW,203,3.4,4.3,76,0.00,,,0.00,WUHU216HW,2013-03-16 07:55:00,
2013-03-16 01:00:00,50.9,43.7,30.05,WSW,248,4.3,4.7,76,0.00,,,0.00,WUHU216HW,2013-03-16 08:00:00,
2013-03-16 01:05:00,50.8,44.1,30.05,WSW,248,3.4,4.7,78,0.00,,,0.00,WUHU216HW,2013-03-16 08:05:00,
2013-03-16 01:10:00,50.4,43.7,30.05,WSW,248,1.6,4.0,78,0.00,,,0.00,WUHU216HW,2013-03-16 08:10:00,
2013-03-16 01:15:00,50.2,43.6,30.05,SW,225,1.3,3.8,78,0.00,,,0.00,WUHU216HW,2013-03-16 08:15:00,
2013-03-16 01:20:00,50.2,43.6,30.05,SW,225,3.1,3.4,78,0.00,,,0.00,WUHU216HW,2013-03-16 08:20:00,
2013-03-16 01:25:00,50.0,43.4,30.04,WSW,248,1.1,3.1,78,0.00,,,0.00,WUHU216HW,2013-03-16 08:25:00,
2013-03-16 01:30:00,49.9,43.6,30.04,SW,225,1.8,2.9,79,0.00,,,0.00,WUHU216HW,2013-03-16 08:30:00,
2013-03-16 01:35:00,49.7,43.4,30.04,SSE,158,0.4,2.2,79,0.00,,,0.00,WUHU216HW,2013-03-16 08:35:00,
2013-03-16 01:40:00,49.3,43.0,30.04,SSW,203,0.0,1.8,79,0.00,,,0.00,WUHU216HW,2013-03-16 08:40:00,
2013-03-16 01:45:00,49.1,42.8,30.04,SW,225,0.4,0.4,79,0.00,,,0.00,WUHU216HW,2013-03-16 08:45:00,
2013-03-16 01:50:00,48.8,42.1,30.04,WSW,248,1.1,1.1,78,0.00,,,0.00,WUHU216HW,2013-03-16 08:50:00,
2013-03-16 01:55:00,48.6,41.9,30.05,WSW,248,0.9,1.8,78,0.00,,,0.00,WUHU216HW,2013-03-16 08:55:00,
2013-03-16 02:00:00,48.4,41.8,30.05,WSW,248,0.7,1.8,78,0.00,,,0.00,WUHU216HW,2013-03-16 09:00:00,
2013-03-16 02:05:00,48.2,41.9,30.05,SW,225,3.1,3.1,79,0.00,,,0.00,WUHU216HW,2013-03-16 09:05:00,
2013-03-16 02:10:00,48.1,41.8,30.05,SW,225,1.8,3.1,79,0.00,,,0.00,WUHU216HW,2013-03-16 09:10:00,
2013-03-16 02:15:00,47.9,41.7,30.05,SW,225,1.8,2.5,79,0.00,,,0.00,WUHU216HW,2013-03-16 09:15:00,
2013-03-16 02:20:00,47.7,41.5,30.05,SSW,203,0.9,2.5,79,0.00,,,0.00,WUHU216HW,2013-03-16 09:20:00,
2013-03-16 02:25:00,47.5,41.3,30.05,SSE,158,0.7,2.2,79,0.00,,,0.00,WUHU216HW,2013-03-16 09:25:00,
2013-03-16 02:30:00,47.3,41.1,30.04,SW,225,0.4,1.3,79,0.00,,,0.00,WUHU216HW,2013-03-16 09:30:00,
2013-03-16 02:35:00,47.2,41.0,30.04,WNW,293,0.9,1.3,79,0.00,,,0.00,WUHU216HW,2013-03-16 09:35:00,
2013-03-16 02:40:00,47.2,41.0,30.04,SW,225,1.1,1.1,79,0.00,,,0.00,WUHU216HW,2013-03-16 09:40:00,
2013-03-16 02:45:00,47.2,41.3,30.04,SW,225,0.9,1.3,80,0.00,,,0.00,WUHU216HW,2013-03-16 09:45:00,
2013-03-16 02:50:00,47.0,40.9,30.04,NW,315,3.6,3.8,79,0.00,,,0.00,WUHU216HW,2013-03-16 09:50:00,
2013-03-16 02:55:00,47.2,41.3,30.04,WSW,248,0.0,3.8,80,0.00,,,0.00,WUHU216HW,2013-03-16 09:55:00,
2013-03-16 03:00:00,47.2,41.7,30.04,SW,225,0.4,3.4,81,0.00,,,0.00,WUHU216HW,2013-03-16 10:00:00,
2013-03-16 03:05:00,47.2,41.7,30.05,WSW,248,1.8,1.8,81,0.00,,,0.00,WUHU216HW,2013-03-16 10:05:00,
2013-03-16 03:10:00,47.2,41.7,30.04,SSW,203,0.7,1.8,81,0.00,,,0.00,WUHU216HW,2013-03-16 10:10:00,
2013-03-16 03:15:00,47.2,41.7,30.05,SW,225,0.7,1.6,81,0.00,,,0.00,WUHU216HW,2013-03-16 10:15:00,
2013-03-16 03:20:00,47.2,41.7,30.05,SSW,203,0.2,1.6,81,0.00,,,0.00,WUHU216HW,2013-03-16 10:20:00,
2013-03-16 03:25:00,47.2,41.7,30.05,SSW,203,0.0,0.7,81,0.00,,,0.00,WUHU216HW,2013-03-16 10:25:00,
2013-03-16 03:30:00,47.3,41.8,30.05,South,180,1.6,1.6,81,0.00,,,0.00,WUHU216HW,2013-03-16 10:30:00,
2013-03-16 03:35:00,47.5,42.3,30.05,SSE,158,1.3,1.6,82,0.00,,,0.00,WUHU216HW,2013-03-16 10:35:00,
2013-03-16 03:40:00,47.7,42.5,30.05,SE,135,0.9,2.7,82,0.00,,,0.00,WUHU216HW,2013-03-16 10:40:00,
2013-03-16 03:45:00,47.9,42.7,30.05,SE,135,1.8,2.7,82,0.00,,,0.00,WUHU216HW,2013-03-16 10:45:00,
2013-03-16 03:50:00,47.9,42.7,30.04,SE,135,2.7,2.7,82,0.00,,,0.00,WUHU216HW,2013-03-16 10:50:00,
2013-03-16 03:55:00,47.9,42.7,30.04,ESE,113,3.6,4.0,82,0.00,,,0.00,WUHU216HW,2013-03-16 10:55:00,
2013-03-16 04:00:00,47.7,42.5,30.04,ESE,113,4.0,4.0,82,0.00,,,0.00,WUHU216HW,2013-03-16 11:00:00,
2013-03-16 04:05:00,47.7,42.8,30.03,ESE,113,2.7,4.0,83,0.00,,,0.00,WUHU216HW,2013-03-16 11:05:00,
2013-03-16 04:10:00,47.7,42.8,30.03,ESE,113,0.7,3.8,83,0.00,,,0.00,WUHU216HW,2013-03-16 11:10:00,
2013-03-16 04:15:00,47.9,42.9,30.03,ESE,113,0.0,1.8,83,0.00,,,0.00,WUHU216HW,2013-03-16 11:15:00,
2013-03-16 04:20:00,47.9,42.9,30.03,SE,135,0.0,1.1,83,0.00,,,0.00,WUHU216HW,2013-03-16 11:20:00,
2013-03-16 04:25:00,47.9,42.9,30.03,ESE,113,0.0,1.1,83,0.00,,,0.00,WUHU216HW,2013-03-16 11:25:00,
2013-03-16 04:30:00,47.9,42.9,30.03,ESE,113,0.0,0.0,83,0.00,,,0.00,WUHU216HW,2013-03-16 11:30:00,
2013-03-16 04:35:00,47.9,42.9,30.03,SE,135,0.0,0.4,83,0.00,,,0.00,WUHU216HW,2013-03-16 11:35:00,
2013-03-16 04:40:00,47.9,42.9,30.02,East,90,0.4,0.4,83,0.00,,,0.00,WUHU216HW,2013-03-16 11:40:00,
2013-03-16 04:45:00,48.1,43.1,30.02,North,0,0.2,0.9,83,0.00,,,0.00,WUHU216HW,2013-03-16 11:45:00,
2013-03-16 04:50:00,48.1,43.1,30.03,North,0,0.4,0.9,83,0.00,,,0.00,WUHU216HW,2013-03-16 11:50:00,
2013-03-16 04:55:00,48.1,43.1,30.02,NW,315,0.0,0.4,83,0.00,,,0.00,WUHU216HW,2013-03-16 11:55:00,
2013-03-16 05:00:00,48.1,43.1,30.03,West,270,1.1,1.1,83,0.00,,,0.00,WUHU216HW,2013-03-16 12:00:00,
2013-03-16 05:05:00,48.1,43.1,30.03,West,270,2.0,2.2,83,0.00,,,0.00,WUHU216HW,2013-03-16 12:05:00,
2013-03-16 05:10:00,48.2,43.3,30.04,NW,315,1.1,2.2,83,0.00,,,0.00,WUHU216HW,2013-03-16 12:10:00,
2013-03-16 05:16:00,48.2,43.3,30.04,NNW,338,0.0,1.1,83,0.00,,,0.00,WUHU216HW,2013-03-16 12:16:00,
2013-03-16 05:21:00,48.2,43.3,30.04,West,270,0.4,1.6,83,0.00,,,0.00,WUHU216HW,2013-03-16 12:21:00,
2013-03-16 05:26:00,48.2,43.3,30.05,SW,225,0.4,1.6,83,0.00,,,0.00,WUHU216HW,2013-03-16 12:26:00,
2013-03-16 05:31:00,48.4,43.5,30.04,SE,135,1.8,1.8,83,0.00,,,0.00,WUHU216HW,2013-03-16 12:31:00,
2013-03-16 05:36:00,48.4,43.5,30.04,ESE,113,2.2,2.2,83,0.00,,,0.00,WUHU216HW,2013-03-16 12:36:00,
2013-03-16 05:41:00,48.4,43.7,30.04,ESE,113,0.4,2.2,84,0.00,,,0.00,WUHU216HW,2013-03-16 12:41:00,
2013-03-16 05:46:00,48.4,43.7,30.04,ESE,113,1.6,1.8,84,0.00,,,0.00,WUHU216HW,2013-03-16 12:46:00,
2013-03-16 05:50:00,48.4,43.7,30.04,SE,135,1.8,1.8,84,0.00,,,0.00,WUHU216HW,2013-03-16 12:50:00,
2013-03-16 05:55:00,48.2,43.6,30.03,ESE,113,5.4,5.4,84,0.00,,,0.00,WUHU216HW,2013-03-16 12:55:00,
2013-03-16 06:00:00,47.9,43.3,30.03,ESE,113,4.0,5.4,84,0.00,,,0.00,WUHU216HW,2013-03-16 13:00:00,
2013-03-16 06:05:00,47.5,43.2,30.03,ESE,113,3.6,4.7,85,0.00,,,0.00,WUHU216HW,2013-03-16 13:05:00,
2013-03-16 06:10:00,47.2,42.9,30.03,ESE,113,1.8,4.7,85,0.00,,,0.00,WUHU216HW,2013-03-16 13:10:00,
2013-03-16 06:15:00,46.8,42.6,30.04,ESE,113,2.0,4.0,85,0.00,,,0.00,WUHU216HW,2013-03-16 13:15:00,
2013-03-16 06:20:00,46.8,42.6,30.04,East,90,0.2,4.0,85,0.00,,,0.00,WUHU216HW,2013-03-16 13:20:00,
2013-03-16 06:25:00,46.6,42.4,30.03,ESE,113,1.3,1.8,85,0.00,,,0.00,WUHU216HW,2013-03-16 13:25:00,
2013-03-16 06:30:00,46.4,42.2,30.03,East,90,1.1,1.6,85,0.00,,,0.00,WUHU216HW,2013-03-16 13:30:00,
2013-03-16 06:35:00,46.3,42.0,30.02,ENE,68,1.1,1.8,85,0.00,,,0.00,WUHU216HW,2013-03-16 13:35:00,
2013-03-16 06:40:00,46.1,41.9,30.02,ENE,68,0.2,1.8,85,0.00,,,0.00,WUHU216HW,2013-03-16 13:40:00,
2013-03-16 06:45:00,45.7,41.2,30.03,NNW,338,0.4,1.6,84,0.00,,,0.00,WUHU216HW,2013-03-16 13:45:00,
2013-03-16 06:50:00,45.7,41.2,30.03,NW,315,0.0,0.4,84,0.00,,,0.00,WUHU216HW,2013-03-16 13:50:00,
2013-03-16 06:55:00,45.5,41.1,30.03,NW,315,0.0,0.2,84,0.00,,,0.00,WUHU216HW,2013-03-16 13:55:00,
2013-03-16 07:00:00,45.4,40.9,30.03,NW,315,0.0,0.2,84,0.00,,,0.00,WUHU216HW,2013-03-16 14:00:00,
2013-03-16 07:05:00,45.2,40.7,30.04,WSW,248,0.7,1.1,84,0.00,,,0.00,WUHU216HW,2013-03-16 14:05:00,
2013-03-16 07:10:00,45.0,40.5,30.03,SW,225,1.3,1.8,84,0.00,,,0.00,WUHU216HW,2013-03-16 14:10:00,
2013-03-16 07:15:00,45.0,40.5,30.03,West,270,0.0,1.8,84,0.00,,,0.00,WUHU216HW,2013-03-16 14:15:00,
2013-03-16 07:20:00,45.0,40.5,30.03,SW,225,1.3,1.3,84,0.00,,,0.00,WUHU216HW,2013-03-16 14:20:00,
2013-03-16 07:25:00,45.0,40.5,30.04,SSE,158,1.3,1.8,84,0.00,,,0.00,WUHU216HW,2013-03-16 14:25:00,
2013-03-16 07:30:00,45.0,40.5,30.04,SSE,158,0.9,1.8,84,0.00,,,0.00,WUHU216HW,2013-03-16 14:30:00,
2013-03-16 07:35:00,45.2,41.0,30.04,SSE,158,0.9,1.8,85,0.00,,,0.00,WUHU216HW,2013-03-16 14:35:00,
2013-03-16 07:40:00,45.2,41.0,30.05,SSE,158,0.4,1.6,85,0.00,,,0.00,WUHU216HW,2013-03-16 14:40:00,
2013-03-16 07:45:00,45.4,41.1,30.05,SE,135,0.4,1.6,85,0.00,,,0.00,WUHU216HW,2013-03-16 14:45:00,
2013-03-16 07:50:00,45.7,41.5,30.05,South,180,1.6,1.8,85,0.00,,,0.00,WUHU216HW,2013-03-16 14:50:00,
2013-03-16 07:55:00,45.7,41.5,30.05,SSE,158,1.6,2.2,85,0.00,,,0.00,WUHU216HW,2013-03-16 14:55:00,
2013-03-16 08:00:00,45.9,41.7,30.05,SE,135,1.1,2.2,85,0.00,,,0.00,WUHU216HW,2013-03-16 15:00:00,
2013-03-16 08:05:00,46.1,41.9,30.05,ESE,113,2.7,2.7,85,0.00,,,0.00,WUHU216HW,2013-03-16 15:05:00,
2013-03-16 08:10:00,46.3,42.0,30.05,SE,135,1.8,3.1,85,0.00,,,0.00,WUHU216HW,2013-03-16 15:10:00,
2013-03-16 08:15:00,46.4,42.2,30.06,SE,135,2.2,3.1,85,0.00,,,0.00,WUHU216HW,2013-03-16 15:15:00,
2013-03-16 08:21:00,46.4,42.5,30.06,SSE,158,2.5,2.9,86,0.00,,,0.00,WUHU216HW,2013-03-16 15:21:00,
2013-03-16 08:26:00,46.6,42.7,30.06,East,90,1.6,2.9,86,0.00,,,0.00,WUHU216HW,2013-03-16 15:26:00,
2013-03-16 08:31:00,46.8,42.8,30.06,East,90,0.0,2.9,86,0.00,,,0.00,WUHU216HW,2013-03-16 15:31:00,
2013-03-16 08:36:00,47.2,43.2,30.06,ESE,113,0.7,2.0,86,0.00,,,0.00,WUHU216HW,2013-03-16 15:36:00,
2013-03-16 08:41:00,47.2,43.6,30.06,East,90,1.3,1.3,87,0.00,,,0.00,WUHU216HW,2013-03-16 15:41:00,
2013-03-16 08:46:00,47.7,44.0,30.06,ENE,68,0.2,1.3,87,0.00,,,0.00,WUHU216HW,2013-03-16 15:46:00,
2013-03-16 08:51:00,47.9,43.9,30.07,North,0,0.9,1.6,86,0.00,,,0.00,WUHU216HW,2013-03-16 15:51:00,
2013-03-16 08:56:00,48.2,44.3,30.07,NNE,23,1.1,1.8,86,0.00,,,0.00,WUHU216HW,2013-03-16 15:56:00,
2013-03-16 09:01:00,48.6,44.6,30.08,North,0,1.1,1.8,86,0.00,,,0.00,WUHU216HW,2013-03-16 16:01:00,
2013-03-16 09:06:00,49.0,44.7,30.08,NNW,338,0.2,1.8,85,0.00,,,0.00,WUHU216HW,2013-03-16 16:06:00,
2013-03-16 09:11:00,49.3,44.9,30.08,North,0,1.3,1.3,85,0.00,,,0.00,WUHU216HW,2013-03-16 16:11:00,
2013-03-16 09:16:00,49.5,45.1,30.08,WNW,293,2.7,2.7,85,0.00,,,0.00,WUHU216HW,2013-03-16 16:16:00,
2013-03-16 09:21:00,49.7,45.3,30.08,NW,315,1.1,2.7,85,0.00,,,0.00,WUHU216HW,2013-03-16 16:21:00,
2013-03-16 09:26:00,50.0,45.9,30.08,WSW,248,0.7,2.5,86,0.00,,,0.00,WUHU216HW,2013-03-16 16:26:00,
2013-03-16 09:31:00,50.2,45.8,30.08,WNW,293,1.1,2.5,85,0.00,,,0.00,WUHU216HW,2013-03-16 16:31:00,
2013-03-16 09:36:00,50.6,46.2,30.08,ESE,113,0.4,2.5,85,0.00,,,0.00,WUHU216HW,2013-03-16 16:36:00,
2013-03-16 09:41:00,51.1,47.0,30.08,ENE,68,1.6,1.6,86,0.00,,,0.00,WUHU216HW,2013-03-16 16:41:00,
2013-03-16 09:46:00,51.7,47.3,30.09,SE,135,1.3,1.6,85,0.00,,,0.00,WUHU216HW,2013-03-16 16:46:00,
2013-03-16 09:51:00,52.2,47.8,30.09,SSW,203,2.2,2.2,85,0.00,,,0.00,WUHU216HW,2013-03-16 16:51:00,
2013-03-16 09:56:00,52.7,48.1,30.09,North,0,0.7,2.2,84,0.00,,,0.00,WUHU216HW,2013-03-16 16:56:00,
2013-03-16 10:01:00,53.1,48.1,30.09,WSW,248,1.6,2.0,83,0.00,,,0.00,WUHU216HW,2013-03-16 17:01:00,
2013-03-16 10:06:00,53.1,47.8,30.09,NNW,338,0.0,2.5,82,0.00,,,0.00,WUHU216HW,2013-03-16 17:06:00,
2013-03-16 10:11:00,53.3,48.0,30.09,NE,45,0.2,2.5,82,0.00,,,0.00,WUHU216HW,2013-03-16 17:11:00,
2013-03-16 10:16:00,53.5,48.2,30.08,ESE,113,1.1,1.3,82,0.00,,,0.00,WUHU216HW,2013-03-16 17:16:00,
2013-03-16 10:21:00,53.8,48.5,30.07,East,90,2.0,3.6,82,0.00,,,0.00,WUHU216HW,2013-03-16 17:21:00,
2013-03-16 10:26:00,54.4,48.7,30.07,East,90,2.5,3.6,81,0.00,,,0.00,WUHU216HW,2013-03-16 17:26:00,
2013-03-16 10:31:00,54.5,48.5,30.07,ENE,68,1.8,2.5,80,0.00,,,0.00,WUHU216HW,2013-03-16 17:31:00,
2013-03-16 10:36:00,54.9,48.5,30.07,NNE,23,0.2,1.8,79,0.00,,,0.00,WUHU216HW,2013-03-16 17:36:00,
2013-03-16 10:41:00,55.1,48.7,30.07,NNE,23,1.1,1.3,79,0.00,,,0.00,WUHU216HW,2013-03-16 17:41:00,
2013-03-16 10:46:00,55.4,49.0,30.07,SE,135,0.4,2.5,79,0.00,,,0.00,WUHU216HW,2013-03-16 17:46:00,
2013-03-16 10:51:00,55.8,49.7,30.07,WSW,248,1.1,2.5,80,0.00,,,0.00,WUHU216HW,2013-03-16 17:51:00,
2013-03-16 10:56:00,56.2,49.3,30.07,NNE,23,1.3,2.5,78,0.00,,,0.00,WUHU216HW,2013-03-16 17:56:00,
2013-03-16 11:01:00,56.7,49.5,30.07,SSW,203,0.4,2.5,77,0.00,,,0.00,WUHU216HW,2013-03-16 18:01:00,
2013-03-16 11:06:00,57.2,50.0,30.07,WNW,293,1.8,3.1,77,0.00,,,0.00,WUHU216HW,2013-03-16 18:06:00,
2013-03-16 11:12:00,57.6,50.0,30.07,NNE,23,1.6,3.1,76,0.00,,,0.00,WUHU216HW,2013-03-16 18:12:00,
2013-03-16 11:17:00,58.3,50.8,30.06,WNW,293,0.4,2.9,76,0.00,,,0.00,WUHU216HW,2013-03-16 18:17:00,
2013-03-16 11:22:00,58.3,50.4,30.06,WNW,293,1.3,2.9,75,0.00,,,0.00,WUHU216HW,2013-03-16 18:22:00,
2013-03-16 11:27:00,59.0,51.1,30.06,SSW,203,1.1,1.8,75,0.00,,,0.00,WUHU216HW,2013-03-16 18:27:00,
2013-03-16 11:32:00,59.4,50.4,30.06,SW,225,1.8,4.0,72,0.00,,,0.00,WUHU216HW,2013-03-16 18:32:00,
2013-03-16 11:37:00,59.9,51.3,30.07,West,270,3.4,4.0,73,0.00,,,0.00,WUHU216HW,2013-03-16 18:37:00,
2013-03-16 11:42:00,60.3,51.3,30.07,SSW,203,3.1,4.0,72,0.00,,,0.00,WUHU216HW,2013-03-16 18:42:00,
2013-03-16 11:47:00,60.8,51.5,30.07,WSW,248,4.0,4.0,71,0.00,,,0.00,WUHU216HW,2013-03-16 18:47:00,
2013-03-16 11:52:00,61.6,51.8,30.07,WSW,248,2.2,4.0,70,0.00,,,0.00,WUHU216HW,2013-03-16 18:52:00,
2013-03-16 11:57:00,62.3,52.0,30.08,WNW,293,9.8,9.8,69,0.00,,,0.00,WUHU216HW,2013-03-16 18:57:00,
2013-03-16 12:02:00,62.3,51.6,30.08,WNW,293,4.7,9.8,68,0.00,,,0.00,WUHU216HW,2013-03-16 19:02:00,
2013-03-16 12:07:00,62.6,51.9,30.08,West,270,3.8,9.8,68,0.00,,,0.00,WUHU216HW,2013-03-16 19:07:00,
2013-03-16 12:12:00,63.4,52.2,30.07,West,270,6.0,6.0,67,0.00,,,0.00,WUHU216HW,2013-03-16 19:12:00,
2013-03-16 12:17:00,63.5,51.9,30.07,West,270,2.9,6.0,66,0.00,,,0.00,WUHU216HW,2013-03-16 19:17:00,
2013-03-16 12:22:00,63.9,51.8,30.07,WNW,293,2.7,6.0,65,0.00,,,0.00,WUHU216HW,2013-03-16 19:22:00,
2013-03-16 12:27:00,64.4,52.4,30.07,WSW,248,4.0,6.3,65,0.00,,,0.00,WUHU216HW,2013-03-16 19:27:00,
2013-03-16 12:32:00,65.0,52.9,30.07,SW,225,4.0,6.3,65,0.00,,,0.00,WUHU216HW,2013-03-16 19:32:00,
2013-03-16 12:37:00,65.9,52.9,30.07,West,270,4.7,6.0,63,0.00,,,0.00,WUHU216HW,2013-03-16 19:37:00,
2013-03-16 12:42:00,65.9,52.5,30.08,WSW,248,3.8,6.0,62,0.00,,,0.00,WUHU216HW,2013-03-16 19:42:00,
2013-03-16 12:47:00,65.9,52.9,30.07,WNW,293,1.8,6.5,63,0.00,,,0.00,WUHU216HW,2013-03-16 19:47:00,
2013-03-16 12:52:00,66.2,52.8,30.07,West,270,2.5,6.5,62,0.00,,,0.00,WUHU216HW,2013-03-16 19:52:00,
2013-03-16 12:57:00,66.6,53.2,30.07,SW,225,5.4,6.5,62,0.00,,,0.00,WUHU216HW,2013-03-16 19:57:00,
2013-03-16 13:02:00,66.8,53.7,30.06,SSW,203,2.9,5.4,63,0.00,,,0.00,WUHU216HW,2013-03-16 20:02:00,
2013-03-16 13:07:00,67.0,53.6,30.06,SSW,203,6.9,6.9,62,0.00,,,0.00,WUHU216HW,2013-03-16 20:07:00,
2013-03-16 13:12:00,67.3,54.3,30.05,WSW,248,7.6,7.6,63,0.00,,,0.00,WUHU216HW,2013-03-16 20:12:00,
2013-03-16 13:17:00,67.3,53.5,30.04,WSW,248,1.8,7.6,61,0.00,,,0.00,WUHU216HW,2013-03-16 20:17:00,
2013-03-16 13:22:00,67.3,53.5,30.04,WSW,248,2.7,5.4,61,0.00,,,0.00,WUHU216HW,2013-03-16 20:22:00,
2013-03-16 13:27:00,67.7,53.7,30.04,SW,225,4.5,6.7,61,0.00,,,0.00,WUHU216HW,2013-03-16 20:27:00,
2013-03-16 13:33:00,68.0,54.1,30.04,SSW,203,3.1,6.7,61,0.00,,,0.00,WUHU216HW,2013-03-16 20:33:00,
2013-03-16 13:38:00,68.6,54.2,30.04,WNW,293,3.8,6.0,60,0.00,,,0.00,WUHU216HW,2013-03-16 20:38:00,
2013-03-16 13:43:00,68.8,53.9,30.04,West,270,2.5,5.1,59,0.00,,,0.00,WUHU216HW,2013-03-16 20:43:00,
2013-03-16 13:48:00,69.1,54.2,30.04,WSW,248,2.0,4.9,59,0.00,,,0.00,WUHU216HW,2013-03-16 20:48:00,
2013-03-16 13:53:00,69.5,54.1,30.04,SSW,203,5.1,5.1,58,0.00,,,0.00,WUHU216HW,2013-03-16 20:53:00,
2013-03-16 13:58:00,69.7,53.3,30.03,SW,225,4.0,5.1,56,0.00,,,0.00,WUHU216HW,2013-03-16 20:58:00,
2013-03-16 14:03:00,69.8,52.9,30.03,WNW,293,4.0,4.3,55,0.00,,,0.00,WUHU216HW,2013-03-16 21:03:00,
2013-03-16 14:08:00,70.2,53.3,30.03,West,270,5.4,5.4,55,0.00,,,0.00,WUHU216HW,2013-03-16 21:08:00,
2013-03-16 14:13:00,70.2,53.3,30.03,WSW,248,5.6,6.3,55,0.00,,,0.00,WUHU216HW,2013-03-16 21:13:00,
2013-03-16 14:18:00,70.4,52.9,30.02,West,270,2.2,7.6,54,0.00,,,0.00,WUHU216HW,2013-03-16 21:18:00,
2013-03-16 14:23:00,70.6,53.1,30.02,WSW,248,7.8,7.8,54,0.00,,,0.00,WUHU216HW,2013-03-16 21:23:00,
2013-03-16 14:28:00,70.7,52.2,30.02,SW,225,6.9,9.2,52,0.00,,,0.00,WUHU216HW,2013-03-16 21:28:00,
2013-03-16 14:33:00,70.7,52.8,30.02,South,180,4.7,9.2,53,0.00,,,0.00,WUHU216HW,2013-03-16 21:33:00,
2013-03-16 14:38:00,71.3,52.8,30.02,SSE,158,6.3,8.3,52,0.00,,,0.00,WUHU216HW,2013-03-16 21:38:00,
2013-03-16 14:43:00,71.6,53.0,30.02,SW,225,5.1,9.4,52,0.00,,,0.00,WUHU216HW,2013-03-16 21:43:00,
2013-03-16 14:48:00,71.6,52.0,30.02,WNW,293,7.6,9.4,50,0.00,,,0.00,WUHU216HW,2013-03-16 21:48:00,
2013-03-16 14:53:00,71.1,50.9,30.02,SW,225,8.5,8.9,49,0.00,,,0.00,WUHU216HW,2013-03-16 21:53:00,
2013-03-16 14:58:00,71.3,51.1,30.02,SSW,203,13.2,13.2,49,0.00,,,0.00,WUHU216HW,2013-03-16 21:58:00,
2013-03-16 15:03:00,71.6,50.9,30.01,SW,225,10.3,13.2,48,0.00,,,0.00,WUHU216HW,2013-03-16 22:03:00,
2013-03-16 15:08:00,71.6,50.9,30.02,West,270,8.5,12.1,48,0.00,,,0.00,WUHU216HW,2013-03-16 22:08:00,
2013-03-16 15:13:00,71.3,48.2,30.01,WSW,248,7.2,9.6,44,0.00,,,0.00,WUHU216HW,2013-03-16 22:13:00,
2013-03-16 15:18:00,71.1,47.3,30.01,WSW,248,10.5,10.5,43,0.00,,,0.00,WUHU216HW,2013-03-16 22:18:00,
2013-03-16 15:23:00,71.1,46.8,30.01,WSW,248,8.7,10.5,42,0.00,,,0.00,WUHU216HW,2013-03-16 22:23:00,
2013-03-16 15:28:00,71.1,46.8,30.01,SSW,203,9.8,10.3,42,0.00,,,0.00,WUHU216HW,2013-03-16 22:28:00,
2013-03-16 15:33:00,70.9,46.0,30.02,South,180,9.2,10.3,41,0.00,,,0.00,WUHU216HW,2013-03-16 22:33:00,
2013-03-16 15:38:00,70.9,46.0,30.02,SW,225,12.5,12.5,41,0.00,,,0.00,WUHU216HW,2013-03-16 22:38:00,
2013-03-16 15:43:00,70.9,46.6,30.01,SW,225,8.9,12.5,42,0.00,,,0.00,WUHU216HW,2013-03-16 22:43:00,
2013-03-16 15:48:00,70.7,47.6,30.02,SSW,203,5.8,12.5,44,0.00,,,0.00,WUHU216HW,2013-03-16 22:48:00,
2013-03-16 15:53:00,70.7,47.1,30.02,SW,225,12.1,12.1,43,0.00,,,0.00,WUHU216HW,2013-03-16 22:53:00,
2013-03-16 15:58:00,70.4,47.4,30.02,WSW,248,6.5,12.1,44,0.00,,,0.00,WUHU216HW,2013-03-16 22:58:00,
2013-03-16 16:03:00,70.6,47.5,30.02,SW,225,8.9,11.6,44,0.00,,,0.00,WUHU216HW,2013-03-16 23:03:00,
2013-03-16 16:08:00,70.6,48.1,30.02,WSW,248,7.2,11.6,45,0.00,,,0.00,WUHU216HW,2013-03-16 23:08:00,
2013-03-16 16:13:00,70.2,47.8,30.02,WSW,248,10.5,10.5,45,0.00,,,0.00,WUHU216HW,2013-03-16 23:13:00,
2013-03-16 16:18:00,70.2,49.0,30.02,SW,225,4.7,13.4,47,0.00,,,0.00,WUHU216HW,2013-03-16 23:18:00,
2013-03-16 16:23:00,70.0,47.6,30.02,West,270,7.6,13.4,45,0.00,,,0.00,WUHU216HW,2013-03-16 23:23:00,
2013-03-16 16:28:00,70.0,45.8,30.02,WSW,248,7.8,7.8,42,0.00,,,0.00,WUHU216HW,2013-03-16 23:28:00,
2013-03-16 16:33:00,69.8,45.6,30.02,WSW,248,5.6,10.3,42,0.00,,,0.00,WUHU216HW,2013-03-16 23:33:00,
2013-03-16 16:38:00,69.7,45.5,30.03,SE,135,7.2,10.3,42,0.00,,,0.00,WUHU216HW,2013-03-16 23:38:00,
2013-03-16 16:43:00,69.7,45.5,30.03,WSW,248,9.2,9.2,42,0.00,,,0.00,WUHU216HW,2013-03-16 23:43:00,
2013-03-16 16:48:00,69.5,45.4,30.03,SW,225,7.6,9.6,42,0.00,,,0.00,WUHU216HW,2013-03-16 23:48:00,
2013-03-16 16:53:00,68.9,45.5,30.02,SW,225,8.7,9.6,43,0.00,,,0.00,WUHU216HW,2013-03-16 23:53:00,
2013-03-16 16:58:00,68.8,45.3,30.02,WSW,248,5.4,8.7,43,0.00,,,0.00,WUHU216HW,2013-03-16 23:58:00,
2013-03-16 17:03:00,68.8,45.3,30.02,SW,225,8.7,8.7,43,0.00,,,0.00,WUHU216HW,2013-03-17 00:03:00,
2013-03-16 17:08:00,68.6,45.7,30.02,West,270,7.8,8.7,44,0.00,,,0.00,WUHU216HW,2013-03-17 00:08:00,
2013-03-16 17:13:00,68.4,44.9,30.02,WSW,248,6.9,11.4,43,0.00,,,0.00,WUHU216HW,2013-03-17 00:13:00,
2013-03-16 17:18:00,68.2,44.8,30.02,WSW,248,9.6,11.4,43,0.00,,,0.00,WUHU216HW,2013-03-17 00:18:00,
2013-03-16 17:23:00,68.0,45.2,30.02,SW,225,4.5,9.6,44,0.00,,,0.00,WUHU216HW,2013-03-17 00:23:00,
2013-03-16 17:28:00,67.7,44.9,30.02,West,270,4.0,11.0,44,0.00,,,0.00,WUHU216HW,2013-03-17 00:28:00,
2013-03-16 17:33:00,67.5,44.7,30.02,SE,135,5.4,11.0,44,0.00,,,0.00,WUHU216HW,2013-03-17 00:33:00,
2013-03-16 17:38:00,67.3,45.2,30.02,WSW,248,5.1,9.4,45,0.00,,,0.00,WUHU216HW,2013-03-17 00:38:00,
2013-03-16 17:43:00,67.1,45.0,30.01,SSW,203,8.3,8.3,45,0.00,,,0.00,WUHU216HW,2013-03-17 00:43:00,
2013-03-16 17:48:00,67.0,44.8,30.01,SW,225,6.5,9.2,45,0.00,,,0.00,WUHU216HW,2013-03-17 00:48:00,
2013-03-16 17:53:00,66.6,44.6,30.02,WSW,248,7.6,9.4,45,0.00,,,0.00,WUHU216HW,2013-03-17 00:53:00,
2013-03-16 17:58:00,66.1,44.7,30.01,SSW,203,8.1,9.4,46,0.00,,,0.00,WUHU216HW,2013-03-17 00:58:00,
2013-03-16 18:03:00,65.7,44.3,30.01,WSW,248,4.9,8.5,46,0.00,,,0.00,WUHU216HW,2013-03-17 01:03:00,
2013-03-16 18:08:00,65.3,43.9,30.01,South,180,8.5,8.7,46,0.00,,,0.00,WUHU216HW,2013-03-17 01:08:00,
2013-03-16 18:13:00,65.2,44.4,30.01,WSW,248,9.6,10.7,47,0.00,,,0.00,WUHU216HW,2013-03-17 01:13:00,
2013-03-16 18:18:00,64.8,44.6,30.01,WSW,248,5.4,10.7,48,0.00,,,0.00,WUHU216HW,2013-03-17 01:18:00,
2013-03-16 18:23:00,64.3,45.2,30.02,SW,225,6.7,9.4,50,0.00,,,0.00,WUHU216HW,2013-03-17 01:23:00,
2013-03-16 18:28:00,63.9,45.4,30.01,SW,225,6.9,8.7,51,0.00,,,0.00,WUHU216HW,2013-03-17 01:28:00,
2013-03-16 18:33:00,63.4,44.9,30.01,SW,225,5.4,9.8,51,0.00,,,0.00,WUHU216HW,2013-03-17 01:33:00,
2013-03-16 18:38:00,63.0,45.0,30.01,SW,225,7.2,9.8,52,0.00,,,0.00,WUHU216HW,2013-03-17 01:38:00,
2013-03-16 18:43:00,62.6,45.2,30.01,WSW,248,5.8,8.7,53,0.00,,,0.00,WUHU216HW,2013-03-17 01:43:00,
2013-03-16 18:48:00,62.5,45.0,30.01,South,180,5.6,8.5,53,0.00,,,0.00,WUHU216HW,2013-03-17 01:48:00,
2013-03-16 18:53:00,61.9,45.0,30.01,SSW,203,6.0,8.5,54,0.00,,,0.00,WUHU216HW,2013-03-17 01:53:00,
2013-03-16 18:58:00,61.6,45.7,30.02,WSW,248,4.5,6.9,56,0.00,,,0.00,WUHU216HW,2013-03-17 01:58:00,
2013-03-16 19:03:00,61.2,45.8,30.02,SSW,203,3.8,5.8,57,0.00,,,0.00,WUHU216HW,2013-03-17 02:03:00,
2013-03-16 19:08:00,60.8,46.0,30.02,SSW,203,5.4,6.3,58,0.00,,,0.00,WUHU216HW,2013-03-17 02:08:00,
2013-03-16 19:13:00,60.5,45.6,30.02,SSW,203,3.8,6.5,58,0.00,,,0.00,WUHU216HW,2013-03-17 02:13:00,
2013-03-16 19:18:00,60.1,45.3,30.02,SW,225,4.0,6.5,58,0.00,,,0.00,WUHU216HW,2013-03-17 02:18:00,
2013-03-16 19:23:00,59.8,45.5,30.03,SW,225,2.5,4.0,59,0.00,,,0.00,WUHU216HW,2013-03-17 02:23:00,
2013-03-16 19:28:00,59.6,45.3,30.02,WSW,248,4.7,4.7,59,0.00,,,0.00,WUHU216HW,2013-03-17 02:28:00,
2013-03-16 19:33:00,59.0,45.2,30.03,SW,225,3.4,6.7,60,0.00,,,0.00,WUHU216HW,2013-03-17 02:33:00,
2013-03-16 19:38:00,58.7,44.4,30.03,SSW,203,3.8,6.7,59,0.00,,,0.00,WUHU216HW,2013-03-17 02:38:00,
2013-03-16 19:43:00,58.3,44.6,30.03,SSW,203,4.0,5.6,60,0.00,,,0.00,WUHU216HW,2013-03-17 02:43:00,
2013-03-16 19:48:00,58.0,44.7,30.03,SW,225,6.9,6.9,61,0.00,,,0.00,WUHU216HW,2013-03-17 02:48:00,
2013-03-16 19:53:00,57.6,44.6,30.03,SW,225,7.6,7.6,62,0.00,,,0.00,WUHU216HW,2013-03-17 02:53:00,
2013-03-16 19:58:00,57.2,45.2,30.03,West,270,7.6,9.8,64,0.00,,,0.00,WUHU216HW,2013-03-17 02:58:00,
2013-03-16 20:03:00,57.1,45.0,30.03,WSW,248,4.9,9.8,64,0.00,,,0.00,WUHU216HW,2013-03-17 03:03:00,
2013-03-16 20:08:00,56.7,44.7,30.03,WSW,248,6.9,9.4,64,0.00,,,0.00,WUHU216HW,2013-03-17 03:08:00,
2013-03-16 20:13:00,56.5,44.8,30.03,SSW,203,6.0,9.4,65,0.00,,,0.00,WUHU216HW,2013-03-17 03:13:00,
2013-03-16 20:18:00,56.2,44.6,30.03,SW,225,3.4,8.9,65,0.00,,,0.00,WUHU216HW,2013-03-17 03:18:00,
2013-03-16 20:23:00,55.8,44.2,30.03,SW,225,4.0,7.4,65,0.00,,,0.00,WUHU216HW,2013-03-17 03:23:00,
2013-03-16 20:28:00,55.4,44.3,30.03,SSW,203,4.3,6.9,66,0.00,,,0.00,WUHU216HW,2013-03-17 03:28:00,
2013-03-16 20:33:00,55.1,44.3,30.04,WSW,248,5.4,6.9,67,0.00,,,0.00,WUHU216HW,2013-03-17 03:33:00,
2013-03-16 20:38:00,54.7,44.4,30.03,SW,225,4.7,6.3,68,0.00,,,0.00,WUHU216HW,2013-03-17 03:38:00,
2013-03-16 20:43:00,54.4,44.0,30.04,SW,225,1.8,6.3,68,0.00,,,0.00,WUHU216HW,2013-03-17 03:43:00,
2013-03-16 20:48:00,54.0,44.1,30.04,SW,225,4.5,6.3,69,0.00,,,0.00,WUHU216HW,2013-03-17 03:48:00,
2013-03-16 20:53:00,53.8,43.9,30.04,WNW,293,1.8,5.8,69,0.00,,,0.00,WUHU216HW,2013-03-17 03:53:00,
2013-03-16 20:58:00,53.6,43.8,30.04,WSW,248,3.4,4.0,69,0.00,,,0.00,WUHU216HW,2013-03-17 03:58:00,
2013-03-16 21:00:00,53.6,43.8,30.04,NW,315,1.6,4.0,69,0.00,,,0.00,WUHU216HW,2013-03-17 04:00:00,
2013-03-16 21:05:00,53.3,43.4,30.05,SW,225,0.9,3.4,69,0.00,,,0.00,WUHU216HW,2013-03-17 04:05:00,
2013-03-16 21:10:00,53.1,43.2,30.04,WSW,248,3.6,3.6,69,0.00,,,0.00,WUHU216HW,2013-03-17 04:10:00,
2013-03-16 21:15:00,52.9,43.5,30.05,WSW,248,5.1,5.4,70,0.00,,,0.00,WUHU216HW,2013-03-17 04:15:00,
2013-03-16 21:20:00,52.7,43.7,30.04,SW,225,3.4,5.4,71,0.00,,,0.00,WUHU216HW,2013-03-17 04:20:00,
2013-03-16 21:25:00,52.6,43.8,30.05,SW,225,4.7,5.4,72,0.00,,,0.00,WUHU216HW,2013-03-17 04:25:00,
2013-03-16 21:30:00,52.4,43.7,30.05,WSW,248,2.0,5.4,72,0.00,,,0.00,WUHU216HW,2013-03-17 04:30:00,
2013-03-16 21:35:00,52.2,43.5,30.05,SW,225,3.8,4.7,72,0.00,,,0.00,WUHU216HW,2013-03-17 04:35:00,
2013-03-16 21:40:00,52.2,43.5,30.06,SW,225,4.0,5.1,72,0.00,,,0.00,WUHU216HW,2013-03-17 04:40:00,
2013-03-16 21:45:00,52.0,43.3,30.06,SSW,203,2.0,5.1,72,0.00,,,0.00,WUHU216HW,2013-03-17 04:45:00,
2013-03-16 21:50:00,51.8,42.9,30.06,SE,135,1.1,3.8,71,0.00,,,0.00,WUHU216HW,2013-03-17 04:50:00,
2013-03-16 21:55:00,51.5,42.5,30.06,South,180,1.8,1.8,71,0.00,,,0.00,WUHU216HW,2013-03-17 04:55:00,
2013-03-16 22:00:00,51.5,42.5,30.07,WSW,248,2.5,2.5,71,0.00,,,0.00,WUHU216HW,2013-03-17 05:00:00,
2013-03-16 22:05:00,51.3,42.7,30.06,SW,225,4.9,5.4,72,0.00,,,0.00,WUHU216HW,2013-03-17 05:05:00,
2013-03-16 22:10:00,51.3,42.7,30.07,West,270,3.8,5.4,72,0.00,,,0.00,WUHU216HW,2013-03-17 05:10:00,
2013-03-16 22:15:00,51.1,42.8,30.07,SW,225,2.2,5.4,73,0.00,,,0.00,WUHU216HW,2013-03-17 05:15:00,
2013-03-16 22:20:00,50.9,42.3,30.07,SSW,203,0.4,4.3,72,0.00,,,0.00,WUHU216HW,2013-03-17 05:20:00,
2013-03-16 22:25:00,50.8,42.1,30.07,SW,225,1.8,4.3,72,0.00,,,0.00,WUHU216HW,2013-03-17 05:25:00,
2013-03-16 22:30:00,50.6,42.0,30.07,WSW,248,2.5,4.9,72,0.00,,,0.00,WUHU216HW,2013-03-17 05:30:00,
2013-03-16 22:35:00,50.6,42.2,30.07,SW,225,1.6,4.9,73,0.00,,,0.00,WUHU216HW,2013-03-17 05:35:00,
2013-03-16 22:40:00,50.4,42.4,30.07,ESE,113,1.1,2.5,74,0.00,,,0.00,WUHU216HW,2013-03-17 05:40:00,
2013-03-16 22:45:00,50.0,41.7,30.07,West,270,1.1,1.6,73,0.00,,,0.00,WUHU216HW,2013-03-17 05:45:00,
2013-03-16 22:50:00,50.0,42.0,30.07,WNW,293,3.4,5.4,74,0.00,,,0.00,WUHU216HW,2013-03-17 05:50:00,
2013-03-16 22:55:00,50.0,42.4,30.08,SSW,203,2.2,5.4,75,0.00,,,0.00,WUHU216HW,2013-03-17 05:55:00,
2013-03-16 23:00:00,50.0,42.4,30.07,SSE,158,1.3,4.7,75,0.00,,,0.00,WUHU216HW,2013-03-17 06:00:00,
2013-03-16 23:05:00,49.9,41.9,30.08,SSE,158,1.6,2.5,74,0.00,,,0.00,WUHU216HW,2013-03-17 06:05:00,
2013-03-16 23:10:00,49.7,41.7,30.08,South,180,2.0,3.6,74,0.00,,,0.00,WUHU216HW,2013-03-17 06:10:00,
2013-03-16 23:15:00,49.3,41.3,30.08,SSW,203,2.0,3.6,74,0.00,,,0.00,WUHU216HW,2013-03-17 06:15:00,
2013-03-16 23:20:00,49.3,41.3,30.08,SW,225,3.1,4.0,74,0.00,,,0.00,WUHU216HW,2013-03-17 06:20:00,
2013-03-16 23:25:00,49.1,41.5,30.08,WSW,248,1.8,4.9,75,0.00,,,0.00,WUHU216HW,2013-03-17 06:25:00,
2013-03-16 23:30:00,49.1,41.9,30.09,SW,225,1.8,4.9,76,0.00,,,0.00,WUHU216HW,2013-03-17 06:30:00,
2013-03-16 23:35:00,49.1,42.2,30.09,SSW,203,3.4,4.5,77,0.00,,,0.00,WUHU216HW,2013-03-17 06:35:00,
2013-03-16 23:40:00,49.0,42.0,30.09,WSW,248,4.9,5.4,77,0.00,,,0.00,WUHU216HW,2013-03-17 06:40:00,
2013-03-16 23:45:00,49.1,41.9,30.09,SW,225,3.4,5.6,76,0.00,,,0.00,WUHU216HW,2013-03-17 06:45:00,
2013-03-16 23:50:00,49.1,41.9,30.09,WNW,293,3.6,5.6,76,0.00,,,0.00,WUHU216HW,2013-03-17 06:50:00,
2013-03-16 23:55:00,49.1,41.9,30.09,WSW,248,2.9,5.1,76,0.00,,,0.00,WUHU216HW,2013-03-17 06:55:00,